createdAt,value
2016-10-17T00:00:07.876Z,26.7
2016-10-17T00:01:21.473Z,26.77
2016-10-17T00:02:35.045Z,26.66
2016-10-17T00:03:48.664Z,26.75
2016-10-17T00:05:02.315Z,26.72
2016-10-17T00:06:15.418Z,26.7
2016-10-17T00:07:29.092Z,26.69
2016-10-17T00:08:42.758Z,26.66
2016-10-17T00:09:56.427Z,26.66
2016-10-17T00:11:10.091Z,26.55
2016-10-17T00:12:23.715Z,26.47
2016-10-17T00:13:37.301Z,26.51
2016-10-17T00:14:51.263Z,26.57
2016-10-17T00:16:04.915Z,26.52
2016-10-17T00:17:18.565Z,26.47
2016-10-17T00:18:32.167Z,26.5
2016-10-17T00:19:45.833Z,26.52
2016-10-17T00:20:59.484Z,26.5
2016-10-17T00:22:12.856Z,26.5
2016-10-17T00:23:26.436Z,26.52
2016-10-17T00:24:39.603Z,26.45
2016-10-17T00:25:53.460Z,26.48
2016-10-17T00:27:07.025Z,26.51
2016-10-17T00:28:20.708Z,26.44
2016-10-17T00:29:34.291Z,26.4
2016-10-17T00:30:48.156Z,26.39
2016-10-17T00:32:01.756Z,26.48
2016-10-17T00:33:15.042Z,26.44
2016-10-17T00:34:28.708Z,26.43
2016-10-17T00:35:42.399Z,26.43
2016-10-17T00:36:56.078Z,26.4
2016-10-17T00:38:09.752Z,26.39
2016-10-17T00:39:23.483Z,26.4
2016-10-17T00:40:37.150Z,26.35
2016-10-17T00:41:50.780Z,26.28
2016-10-17T00:43:03.661Z,26.26
2016-10-17T00:44:17.294Z,26.21
2016-10-17T00:45:30.904Z,26.23
2016-10-17T00:46:44.564Z,26.2
2016-10-17T00:47:58.209Z,26.15
2016-10-17T00:49:11.822Z,26.05
2016-10-17T00:50:25.570Z,26.05
2016-10-17T00:51:39.209Z,26.05
2016-10-17T00:52:52.249Z,26.07
2016-10-17T00:54:05.835Z,26.05
2016-10-17T00:55:19.466Z,26.02
2016-10-17T00:56:33.025Z,26.05
2016-10-17T00:57:46.671Z,25.98
2016-10-17T00:59:00.236Z,25.98
2016-10-17T01:00:13.838Z,25.99
2016-10-17T01:01:27.456Z,26.06
2016-10-17T01:02:41.157Z,26.07
2016-10-17T01:03:54.872Z,26.05
2016-10-17T01:05:08.533Z,26.07
2016-10-17T01:06:22.430Z,25.98
2016-10-17T01:07:36.080Z,25.83
2016-10-17T01:08:49.766Z,25.82
2016-10-17T01:10:03.455Z,25.82
2016-10-17T01:11:17.108Z,25.76
2016-10-17T01:12:30.459Z,25.77
2016-10-17T01:13:44.083Z,25.77
2016-10-17T01:14:57.780Z,25.69
2016-10-17T01:16:11.403Z,25.65
2016-10-17T01:17:24.473Z,25.72
2016-10-17T01:18:38.069Z,25.73
2016-10-17T01:19:51.762Z,25.73
2016-10-17T01:21:04.841Z,25.73
2016-10-17T01:22:18.451Z,25.73
2016-10-17T01:23:32.345Z,25.69
2016-10-17T01:24:45.985Z,25.87
2016-10-17T01:25:59.904Z,25.75
2016-10-17T01:27:13.782Z,25.83
2016-10-17T01:28:27.516Z,25.77
2016-10-17T01:29:40.928Z,25.75
2016-10-17T01:30:54.137Z,25.79
2016-10-17T01:32:07.260Z,25.64
2016-10-17T01:33:21.071Z,25.6
2016-10-17T01:34:34.769Z,25.61
2016-10-17T01:35:48.343Z,25.57
2016-10-17T01:37:02.009Z,25.62
2016-10-17T01:38:15.858Z,25.51
2016-10-17T01:39:43.417Z,25.58
2016-10-17T01:40:57.040Z,25.4
2016-10-17T01:42:10.101Z,25.32
2016-10-17T01:43:23.739Z,25.27
2016-10-17T01:44:37.323Z,25.18
2016-10-17T01:45:51.128Z,25.17
2016-10-17T01:47:04.898Z,25.28
2016-10-17T01:48:18.074Z,25.28
2016-10-17T01:49:31.810Z,25.3
2016-10-17T01:50:45.443Z,25.39
2016-10-17T01:51:59.053Z,25.39
2016-10-17T01:53:12.692Z,25.25
2016-10-17T01:54:25.806Z,25.32
2016-10-17T01:55:39.456Z,25.27
2016-10-17T01:56:53.145Z,25.32
2016-10-17T01:58:06.797Z,25.33
2016-10-17T01:59:20.684Z,25.33
2016-10-17T02:00:34.340Z,25.32
2016-10-17T02:01:48.129Z,25.25
2016-10-17T02:03:01.847Z,25.42
2016-10-17T02:04:15.409Z,25.32
2016-10-17T02:05:29.103Z,25.25
2016-10-17T02:06:42.746Z,25.23
2016-10-17T02:07:56.422Z,25.23
2016-10-17T02:09:10.043Z,25.17
2016-10-17T02:10:23.564Z,25.03
2016-10-17T02:11:37.149Z,24.95
2016-10-17T02:12:50.763Z,24.91
2016-10-17T02:14:04.402Z,24.85
2016-10-17T02:15:17.484Z,24.93
2016-10-17T02:16:31.135Z,24.96
2016-10-17T02:17:45.000Z,24.98
2016-10-17T02:18:58.400Z,25.02
2016-10-17T02:20:12.081Z,25.06
2016-10-17T02:21:25.709Z,25.06
2016-10-17T02:22:39.361Z,25.02
2016-10-17T02:23:53.026Z,25
2016-10-17T02:25:06.384Z,25.03
2016-10-17T02:26:20.231Z,25.03
2016-10-17T02:27:33.659Z,24.98
2016-10-17T02:28:48.175Z,24.98
2016-10-17T02:30:01.767Z,24.98
2016-10-17T02:31:15.447Z,24.95
2016-10-17T02:32:29.117Z,24.9
2016-10-17T02:33:42.822Z,24.9
2016-10-17T02:34:55.972Z,24.84
2016-10-17T02:36:09.076Z,24.88
2016-10-17T02:37:22.747Z,24.85
2016-10-17T02:38:36.339Z,24.9
2016-10-17T02:39:50.044Z,24.96
2016-10-17T02:41:03.622Z,24.91
2016-10-17T02:42:17.344Z,24.87
2016-10-17T02:43:31.006Z,24.77
2016-10-17T02:44:44.722Z,24.83
2016-10-17T02:45:58.600Z,24.87
2016-10-17T02:47:12.142Z,24.88
2016-10-17T02:48:25.786Z,24.85
2016-10-17T02:49:38.886Z,24.83
2016-10-17T02:50:52.577Z,24.78
2016-10-17T02:52:06.213Z,24.84
2016-10-17T02:53:19.859Z,24.87
2016-10-17T02:54:33.547Z,24.69
2016-10-17T02:55:47.180Z,24.81
2016-10-17T02:57:00.881Z,24.69
2016-10-17T02:58:14.032Z,24.68
2016-10-17T02:59:27.334Z,24.71
2016-10-17T03:00:40.727Z,24.65
2016-10-17T03:01:53.797Z,24.77
2016-10-17T03:03:07.395Z,24.68
2016-10-17T03:04:21.162Z,24.61
2016-10-17T03:05:34.804Z,24.71
2016-10-17T03:06:48.510Z,24.6
2016-10-17T03:08:02.545Z,24.62
2016-10-17T03:09:16.224Z,24.58
2016-10-17T03:10:29.920Z,24.52
2016-10-17T03:11:43.033Z,24.57
2016-10-17T03:12:56.621Z,24.61
2016-10-17T03:14:10.278Z,24.45
2016-10-17T03:15:23.922Z,24.46
2016-10-17T03:16:37.533Z,24.37
2016-10-17T03:17:50.707Z,24.4
2016-10-17T03:19:04.355Z,24.43
2016-10-17T03:20:18.173Z,24.28
2016-10-17T03:21:31.875Z,24.34
2016-10-17T03:22:45.504Z,24.39
2016-10-17T03:23:59.081Z,24.31
2016-10-17T03:25:12.693Z,24.3
2016-10-17T03:26:26.364Z,24.35
2016-10-17T03:27:39.997Z,24.37
2016-10-17T03:28:53.617Z,24.42
2016-10-17T03:30:07.290Z,24.39
2016-10-17T03:31:20.857Z,24.37
2016-10-17T03:32:34.471Z,24.39
2016-10-17T03:33:48.138Z,24.31
2016-10-17T03:35:01.769Z,24.39
2016-10-17T03:36:15.379Z,24.4
2016-10-17T03:37:28.978Z,24.34
2016-10-17T03:38:42.562Z,24.31
2016-10-17T03:39:56.186Z,24.34
2016-10-17T03:41:09.837Z,24.34
2016-10-17T03:42:22.958Z,24.28
2016-10-17T03:43:36.654Z,24.39
2016-10-17T03:44:49.795Z,24.3
2016-10-17T03:46:02.907Z,24.31
2016-10-17T03:47:16.576Z,24.22
2016-10-17T03:48:30.188Z,24.25
2016-10-17T03:49:43.825Z,24.2
2016-10-17T03:50:56.983Z,24.18
2016-10-17T03:52:10.602Z,24.18
2016-10-17T03:53:24.349Z,24.18
2016-10-17T03:54:36.896Z,24.21
2016-10-17T03:55:50.560Z,24.2
2016-10-17T03:57:04.206Z,24.08
2016-10-17T03:58:17.814Z,24.05
2016-10-17T03:59:31.466Z,24.06
2016-10-17T04:00:45.159Z,24.02
2016-10-17T04:01:58.235Z,24.02
2016-10-17T04:03:12.078Z,24.02
2016-10-17T04:04:25.707Z,23.97
2016-10-17T04:05:39.277Z,24.02
2016-10-17T04:06:52.513Z,24
2016-10-17T04:08:05.643Z,23.85
2016-10-17T04:09:19.284Z,23.91
2016-10-17T04:10:32.863Z,23.98
2016-10-17T04:11:46.780Z,23.94
2016-10-17T04:12:59.913Z,23.98
2016-10-17T04:14:12.984Z,23.95
2016-10-17T04:15:26.633Z,23.93
2016-10-17T04:16:40.349Z,23.88
2016-10-17T04:17:53.921Z,23.9
2016-10-17T04:19:07.614Z,24
2016-10-17T04:20:21.359Z,23.93
2016-10-17T04:21:35.033Z,23.95
2016-10-17T04:22:48.172Z,23.87
2016-10-17T04:24:01.762Z,23.87
2016-10-17T04:25:15.418Z,23.94
2016-10-17T04:26:29.030Z,23.94
2016-10-17T04:27:42.693Z,23.85
2016-10-17T04:28:55.797Z,23.9
2016-10-17T04:30:09.477Z,23.87
2016-10-17T04:31:23.120Z,23.91
2016-10-17T04:32:36.954Z,23.88
2016-10-17T04:33:50.562Z,23.98
2016-10-17T04:35:04.148Z,23.88
2016-10-17T04:36:17.782Z,23.87
2016-10-17T04:37:31.468Z,23.87
2016-10-17T04:38:45.102Z,23.84
2016-10-17T04:39:57.668Z,23.85
2016-10-17T04:41:11.294Z,23.83
2016-10-17T04:42:24.946Z,23.84
2016-10-17T04:43:38.633Z,23.93
2016-10-17T04:44:52.449Z,23.93
2016-10-17T04:46:06.112Z,23.93
2016-10-17T04:47:19.798Z,23.87
2016-10-17T04:48:33.417Z,23.83
2016-10-17T04:49:47.057Z,23.84
2016-10-17T04:50:59.644Z,23.87
2016-10-17T04:52:13.234Z,23.76
2016-10-17T04:53:26.890Z,23.7
2016-10-17T04:54:40.039Z,23.79
2016-10-17T04:55:53.848Z,23.8
2016-10-17T04:57:07.457Z,23.83
2016-10-17T04:58:21.261Z,23.84
2016-10-17T04:59:34.881Z,23.91
2016-10-17T05:00:48.489Z,23.88
2016-10-17T05:02:02.094Z,23.88
2016-10-17T05:03:15.704Z,23.85
2016-10-17T05:04:29.313Z,23.91
2016-10-17T05:05:42.973Z,23.91
2016-10-17T05:06:56.622Z,23.87
2016-10-17T05:08:09.979Z,23.94
2016-10-17T05:09:23.665Z,23.88
2016-10-17T05:10:37.274Z,23.87
2016-10-17T05:11:50.390Z,23.95
2016-10-17T05:13:04.108Z,23.91
2016-10-17T05:14:17.815Z,23.85
2016-10-17T05:15:31.494Z,23.9
2016-10-17T05:16:45.123Z,23.85
2016-10-17T05:17:58.677Z,23.93
2016-10-17T05:19:11.724Z,23.87
2016-10-17T05:20:25.631Z,23.88
2016-10-17T05:21:39.198Z,23.83
2016-10-17T05:22:52.565Z,23.95
2016-10-17T05:24:06.223Z,23.79
2016-10-17T05:25:19.842Z,23.8
2016-10-17T05:26:33.432Z,23.8
2016-10-17T05:27:47.034Z,23.75
2016-10-17T05:29:00.711Z,23.87
2016-10-17T05:30:14.373Z,23.93
2016-10-17T05:31:27.982Z,23.72
2016-10-17T05:32:41.885Z,23.83
2016-10-17T05:33:55.585Z,23.75
2016-10-17T05:35:09.135Z,23.8
2016-10-17T05:36:22.921Z,23.84
2016-10-17T05:37:36.529Z,23.78
2016-10-17T05:38:49.656Z,23.69
2016-10-17T05:40:02.757Z,23.79
2016-10-17T05:41:16.452Z,23.66
2016-10-17T05:42:30.047Z,23.53
2016-10-17T05:43:43.764Z,23.48
2016-10-17T05:44:57.404Z,23.36
2016-10-17T05:46:10.443Z,23.28
2016-10-17T05:47:22.930Z,23.27
2016-10-17T05:48:35.994Z,23.19
2016-10-17T05:49:49.615Z,23.1
2016-10-17T05:51:03.239Z,23.15
2016-10-17T05:52:16.352Z,23.01
2016-10-17T05:53:29.522Z,23.12
2016-10-17T05:54:43.198Z,23
2016-10-17T05:55:56.827Z,23.1
2016-10-17T05:57:10.509Z,23.09
2016-10-17T05:58:23.608Z,23.16
2016-10-17T05:59:37.227Z,23.04
2016-10-17T06:00:51.277Z,22.91
2016-10-17T06:02:04.086Z,22.83
2016-10-17T06:03:16.656Z,22.77
2016-10-17T06:04:30.216Z,22.85
2016-10-17T06:05:43.303Z,22.85
2016-10-17T06:06:55.871Z,22.73
2016-10-17T06:08:08.997Z,22.61
2016-10-17T06:09:22.656Z,22.67
2016-10-17T06:10:34.092Z,22.58
2016-10-17T06:11:47.273Z,22.6
2016-10-17T06:13:00.367Z,22.67
2016-10-17T06:14:13.980Z,22.65
2016-10-17T06:15:27.053Z,22.61
2016-10-17T06:16:40.705Z,22.76
2016-10-17T06:17:54.459Z,22.62
2016-10-17T06:19:08.109Z,22.72
2016-10-17T06:20:21.770Z,22.75
2016-10-17T06:21:35.338Z,22.7
2016-10-17T06:22:48.915Z,22.68
2016-10-17T06:24:02.518Z,22.73
2016-10-17T06:25:16.118Z,22.67
2016-10-17T06:26:29.897Z,22.75
2016-10-17T06:27:43.503Z,22.62
2016-10-17T06:28:57.136Z,22.64
2016-10-17T06:30:10.724Z,22.68
2016-10-17T06:31:24.426Z,22.62
2016-10-17T06:32:38.023Z,22.47
2016-10-17T06:33:51.661Z,22.49
2016-10-17T06:35:05.292Z,22.37
2016-10-17T06:36:19.047Z,22.47
2016-10-17T06:37:32.707Z,22.45
2016-10-17T06:38:45.902Z,22.4
2016-10-17T06:39:59.570Z,22.35
2016-10-17T06:41:13.213Z,22.27
2016-10-17T06:42:26.831Z,22.21
2016-10-17T06:43:40.381Z,22.25
2016-10-17T06:44:54.036Z,22.2
2016-10-17T06:46:07.675Z,22.22
2016-10-17T06:47:21.347Z,22.17
2016-10-17T06:48:35.007Z,22.15
2016-10-17T06:49:48.677Z,22.14
2016-10-17T06:51:02.385Z,22.15
2016-10-17T06:52:16.072Z,22.14
2016-10-17T06:53:29.165Z,22.22
2016-10-17T06:54:42.785Z,22.22
2016-10-17T06:55:56.460Z,22.25
2016-10-17T06:57:09.507Z,22.14
2016-10-17T06:58:23.100Z,22.14
2016-10-17T06:59:36.749Z,22.12
2016-10-17T07:00:50.397Z,22.12
2016-10-17T07:02:04.111Z,22
2016-10-17T07:03:17.794Z,22.06
2016-10-17T07:04:31.462Z,22.14
2016-10-17T07:05:45.173Z,22.09
2016-10-17T07:06:58.780Z,22.12
2016-10-17T07:08:12.404Z,22.12
2016-10-17T07:09:26.288Z,22.2
2016-10-17T07:10:39.970Z,22.09
2016-10-17T07:11:53.408Z,22.12
2016-10-17T07:13:07.045Z,22.1
2016-10-17T07:14:20.491Z,22.1
2016-10-17T07:15:33.923Z,22.12
2016-10-17T07:16:47.230Z,22.1
2016-10-17T07:18:00.862Z,22.12
2016-10-17T07:19:14.467Z,22.1
2016-10-17T07:20:28.168Z,22.17
2016-10-17T07:21:41.758Z,22.1
2016-10-17T07:22:55.578Z,22.1
2016-10-17T07:24:08.978Z,22.15
2016-10-17T07:25:22.349Z,22.14
2016-10-17T07:26:35.491Z,21.94
2016-10-17T07:27:49.108Z,22
2016-10-17T07:29:02.225Z,21.96
2016-10-17T07:30:16.067Z,22.14
2016-10-17T07:31:29.639Z,22.14
2016-10-17T07:32:42.169Z,22.12
2016-10-17T07:33:55.511Z,22.17
2016-10-17T07:35:09.137Z,22.22
2016-10-17T07:36:22.754Z,22.15
2016-10-17T07:37:36.361Z,22.1
2016-10-17T07:38:49.981Z,22.1
2016-10-17T07:40:03.615Z,21.98
2016-10-17T07:41:16.720Z,21.98
2016-10-17T07:42:30.292Z,21.91
2016-10-17T07:43:44.019Z,22.05
2016-10-17T07:44:57.667Z,22.03
2016-10-17T07:46:11.383Z,22.02
2016-10-17T07:47:25.023Z,22
2016-10-17T07:48:38.646Z,21.88
2016-10-17T07:49:51.732Z,21.98
2016-10-17T07:51:05.185Z,22
2016-10-17T07:52:18.825Z,22.15
2016-10-17T07:53:32.427Z,22.14
2016-10-17T07:54:45.581Z,21.98
2016-10-17T07:55:58.648Z,22.15
2016-10-17T07:57:12.301Z,22.06
2016-10-17T07:58:25.874Z,22.12
2016-10-17T08:00:49.183Z,22.22
2016-10-17T08:02:02.781Z,22.22
2016-10-17T08:03:16.432Z,22.35
2016-10-17T08:04:30.081Z,22.39
2016-10-17T08:05:43.681Z,22.3
2016-10-17T08:06:56.703Z,22.33
2016-10-17T08:08:10.323Z,22.31
2016-10-17T08:09:23.411Z,22.24
2016-10-17T08:10:37.167Z,22.22
2016-10-17T08:11:50.748Z,22.3
2016-10-17T08:13:04.415Z,22.39
2016-10-17T08:14:18.309Z,22.36
2016-10-17T08:15:32.015Z,22.35
2016-10-17T08:16:45.694Z,22.47
2016-10-17T08:17:59.081Z,22.46
2016-10-17T08:19:12.740Z,22.43
2016-10-17T08:20:26.317Z,22.4
2016-10-17T08:21:40.245Z,22.43
2016-10-17T08:22:53.649Z,22.35
2016-10-17T08:24:07.228Z,22.46
2016-10-17T08:25:20.837Z,22.42
2016-10-17T08:26:34.488Z,22.43
2016-10-17T08:27:48.313Z,22.46
2016-10-17T08:29:01.943Z,22.43
2016-10-17T08:30:15.032Z,22.45
2016-10-17T08:31:28.770Z,22.47
2016-10-17T08:32:41.937Z,22.47
2016-10-17T08:33:55.744Z,22.49
2016-10-17T08:35:09.391Z,22.46
2016-10-17T08:36:22.997Z,22.55
2016-10-17T08:37:36.745Z,22.54
2016-10-17T08:38:49.563Z,22.51
2016-10-17T08:40:03.221Z,22.58
2016-10-17T08:41:16.860Z,22.6
2016-10-17T08:42:30.454Z,22.49
2016-10-17T08:43:44.050Z,22.67
2016-10-17T08:44:57.680Z,22.61
2016-10-17T08:46:11.257Z,22.62
2016-10-17T08:47:24.343Z,22.65
2016-10-17T08:48:37.665Z,22.58
2016-10-17T08:49:51.570Z,22.58
2016-10-17T08:51:05.182Z,22.58
2016-10-17T08:52:18.769Z,22.65
2016-10-17T08:53:32.423Z,22.64
2016-10-17T08:54:45.773Z,22.67
2016-10-17T08:55:59.422Z,22.58
2016-10-17T08:57:13.033Z,22.61
2016-10-17T08:58:26.782Z,22.54
2016-10-17T08:59:40.418Z,22.6
2016-10-17T09:00:53.526Z,22.62
2016-10-17T09:02:07.146Z,22.6
2016-10-17T09:03:20.257Z,22.6
2016-10-17T09:04:33.934Z,22.75
2016-10-17T09:05:47.571Z,22.73
2016-10-17T09:07:01.178Z,22.76
2016-10-17T09:08:14.756Z,22.83
2016-10-17T09:09:28.407Z,22.82
2016-10-17T09:10:42.086Z,22.82
2016-10-17T09:11:55.867Z,22.88
2016-10-17T09:13:09.567Z,22.85
2016-10-17T09:14:22.717Z,22.83
2016-10-17T09:15:36.096Z,22.85
2016-10-17T09:16:49.738Z,22.94
2016-10-17T09:18:03.585Z,22.94
2016-10-17T09:19:16.673Z,23.04
2016-10-17T09:20:29.252Z,22.98
2016-10-17T09:21:42.611Z,22.97
2016-10-17T09:22:56.193Z,23.01
2016-10-17T09:24:09.924Z,23.07
2016-10-17T09:25:23.609Z,23.07
2016-10-17T09:26:36.661Z,23.1
2016-10-17T09:27:50.370Z,23.15
2016-10-17T09:29:04.054Z,23.1
2016-10-17T09:30:17.717Z,23.17
2016-10-17T09:31:31.305Z,23.16
2016-10-17T09:32:44.914Z,23.35
2016-10-17T09:33:58.464Z,23.25
2016-10-17T09:35:11.537Z,23.35
2016-10-17T09:36:25.164Z,23.27
2016-10-17T09:37:38.844Z,23.32
2016-10-17T09:38:52.459Z,23.27
2016-10-17T09:40:06.108Z,23.31
2016-10-17T09:41:19.207Z,23.36
2016-10-17T09:42:32.590Z,23.23
2016-10-17T09:43:46.192Z,23.33
2016-10-17T09:44:59.309Z,23.33
2016-10-17T09:46:12.665Z,23.33
2016-10-17T09:47:25.852Z,23.32
2016-10-17T09:48:39.477Z,23.31
2016-10-17T09:49:53.091Z,23.36
2016-10-17T09:51:06.191Z,23.33
2016-10-17T09:52:19.883Z,23.27
2016-10-17T09:53:33.513Z,23.32
2016-10-17T09:54:47.152Z,23.27
2016-10-17T09:56:00.729Z,23.28
2016-10-17T09:57:14.401Z,23.28
2016-10-17T09:58:27.452Z,23.38
2016-10-17T09:59:40.766Z,23.36
2016-10-17T10:00:54.152Z,23.47
2016-10-17T10:02:07.739Z,23.46
2016-10-17T10:03:21.539Z,23.43
2016-10-17T10:04:35.141Z,23.47
2016-10-17T10:05:48.804Z,23.38
2016-10-17T10:07:02.480Z,23.47
2016-10-17T10:08:15.623Z,23.38
2016-10-17T10:09:28.734Z,23.36
2016-10-17T10:10:42.463Z,23.38
2016-10-17T10:11:56.119Z,23.5
2016-10-17T10:13:09.833Z,23.47
2016-10-17T10:14:23.209Z,23.4
2016-10-17T10:15:36.820Z,23.47
2016-10-17T10:16:50.438Z,23.43
2016-10-17T10:18:03.784Z,23.57
2016-10-17T10:19:17.462Z,23.51
2016-10-17T10:20:31.139Z,23.55
2016-10-17T10:21:44.819Z,23.55
2016-10-17T10:22:58.486Z,23.6
2016-10-17T10:24:11.606Z,23.68
2016-10-17T10:25:24.727Z,23.72
2016-10-17T10:26:38.296Z,23.72
2016-10-17T10:27:51.387Z,23.88
2016-10-17T10:29:05.042Z,23.88
2016-10-17T10:30:18.072Z,23.78
2016-10-17T10:31:31.207Z,23.79
2016-10-17T10:32:44.906Z,23.76
2016-10-17T10:33:57.476Z,23.7
2016-10-17T10:35:10.580Z,23.68
2016-10-17T10:36:24.241Z,23.68
2016-10-17T10:37:37.822Z,23.68
2016-10-17T10:38:51.077Z,23.6
2016-10-17T10:40:04.421Z,23.79
2016-10-17T10:41:17.521Z,23.83
2016-10-17T10:42:31.129Z,23.84
2016-10-17T10:43:44.706Z,23.8
2016-10-17T10:44:58.357Z,23.84
2016-10-17T10:46:11.455Z,23.84
2016-10-17T10:47:25.065Z,23.83
2016-10-17T10:48:38.724Z,23.43
2016-10-17T10:49:52.529Z,23.33
2016-10-17T10:51:06.125Z,23.42
2016-10-17T10:52:19.765Z,23.54
2016-10-17T10:53:32.877Z,23.63
2016-10-17T10:54:46.531Z,23.66
2016-10-17T10:56:00.234Z,23.68
2016-10-17T10:57:13.874Z,23.7
2016-10-17T10:58:26.990Z,23.68
2016-10-17T10:59:40.580Z,23.69
2016-10-17T11:00:54.252Z,23.61
2016-10-17T11:02:07.310Z,23.57
2016-10-17T11:03:20.966Z,23.57
2016-10-17T11:04:34.635Z,23.57
2016-10-17T11:05:48.522Z,23.73
2016-10-17T11:07:01.624Z,23.78
2016-10-17T11:08:15.406Z,23.83
2016-10-17T11:09:28.444Z,23.84
2016-10-17T11:10:42.034Z,23.95
2016-10-17T11:11:55.319Z,24.06
2016-10-17T11:13:08.510Z,24.05
2016-10-17T11:14:22.184Z,24.27
2016-10-17T11:15:35.019Z,24.47
2016-10-17T11:16:48.155Z,24.32
2016-10-17T11:18:01.774Z,24.16
2016-10-17T11:19:15.423Z,23.83
2016-10-17T11:20:29.094Z,23.79
2016-10-17T11:21:42.204Z,23.66
2016-10-17T11:22:55.968Z,23.78
2016-10-17T11:24:09.606Z,23.78
2016-10-17T11:25:23.279Z,23.93
2016-10-17T11:26:36.352Z,24.03
2016-10-17T11:27:49.993Z,24.09
2016-10-17T11:29:03.593Z,24.06
2016-10-17T11:30:17.244Z,24.2
2016-10-17T11:31:30.289Z,24.24
2016-10-17T11:32:43.882Z,24.24
2016-10-17T11:33:56.982Z,24.21
2016-10-17T11:35:10.081Z,24.3
2016-10-17T11:36:23.675Z,24.3
2016-10-17T11:37:35.429Z,24.42
2016-10-17T11:38:49.017Z,24.3
2016-10-17T11:40:02.676Z,24.28
2016-10-17T11:41:15.750Z,24.3
2016-10-17T11:42:29.422Z,24.39
2016-10-17T11:43:42.841Z,24.39
2016-10-17T11:44:56.218Z,24.39
2016-10-17T11:46:09.879Z,24.4
2016-10-17T11:47:23.535Z,24.42
2016-10-17T11:48:36.780Z,24.31
2016-10-17T11:49:50.405Z,24.24
2016-10-17T11:51:03.982Z,24.45
2016-10-17T11:52:16.790Z,24.6
2016-10-17T11:53:30.150Z,24.83
2016-10-17T11:54:43.264Z,24.96
2016-10-17T11:55:56.943Z,25.06
2016-10-17T11:57:10.602Z,25.15
2016-10-17T11:58:24.204Z,25.4
2016-10-17T11:59:37.784Z,25.46
2016-10-17T12:00:49.810Z,25.47
2016-10-17T12:02:02.933Z,25.5
2016-10-17T12:03:15.457Z,25.47
2016-10-17T12:04:28.543Z,25.54
2016-10-17T12:05:41.608Z,25.61
2016-10-17T12:06:54.684Z,25.62
2016-10-17T12:08:08.316Z,25.9
2016-10-17T12:09:22.015Z,25.91
2016-10-17T12:10:35.664Z,25.91
2016-10-17T12:11:48.848Z,25.98
2016-10-17T12:13:02.487Z,25.97
2016-10-17T12:14:15.600Z,26.02
2016-10-17T12:15:29.262Z,26.01
2016-10-17T12:16:42.902Z,25.99
2016-10-17T12:17:56.554Z,26.26
2016-10-17T12:19:10.278Z,26.37
2016-10-17T12:20:24.207Z,26.39
2016-10-17T12:21:37.608Z,26.48
2016-10-17T12:22:51.265Z,26.54
2016-10-17T12:24:04.879Z,26.8
2016-10-17T12:25:17.977Z,26.85
2016-10-17T12:26:31.643Z,26.7
2016-10-17T12:27:45.448Z,26.99
2016-10-17T12:28:58.608Z,27.13
2016-10-17T12:30:12.296Z,27.32
2016-10-17T12:31:26.034Z,27.4
2016-10-17T12:32:39.185Z,27.57
2016-10-17T12:33:52.761Z,27.59
2016-10-17T12:35:06.400Z,27.6
2016-10-17T12:36:20.021Z,27.55
2016-10-17T12:37:33.693Z,27.6
2016-10-17T12:38:46.754Z,27.72
2016-10-17T12:40:00.385Z,27.81
2016-10-17T12:41:14.000Z,27.92
2016-10-17T12:42:27.588Z,27.97
2016-10-17T12:43:41.287Z,28.06
2016-10-17T12:44:54.934Z,28.02
2016-10-17T12:46:08.567Z,28.21
2016-10-17T12:47:22.196Z,28.39
2016-10-17T12:48:35.331Z,28.37
2016-10-17T12:49:49.012Z,28.3
2016-10-17T12:51:02.716Z,28.37
2016-10-17T12:52:16.588Z,28.51
2016-10-17T12:53:30.291Z,28.56
2016-10-17T12:54:43.973Z,28.56
2016-10-17T12:55:56.607Z,28.73
2016-10-17T12:57:10.215Z,28.7
2016-10-17T12:58:23.848Z,28.77
2016-10-17T12:59:36.967Z,28.88
2016-10-17T13:00:50.632Z,28.86
2016-10-17T13:02:04.215Z,28.95
2016-10-17T13:03:16.779Z,29.06
2016-10-17T13:04:30.507Z,28.9
2016-10-17T13:05:43.658Z,29.15
2016-10-17T13:06:57.216Z,29.39
2016-10-17T13:08:10.898Z,29.52
2016-10-17T13:09:23.472Z,29.64
2016-10-17T13:10:37.103Z,29.8
2016-10-17T13:11:50.770Z,29.68
2016-10-17T13:13:04.357Z,29.82
2016-10-17T13:14:17.518Z,29.92
2016-10-17T13:15:30.084Z,30.07
2016-10-17T13:16:42.609Z,30.17
2016-10-17T13:17:55.695Z,30.23
2016-10-17T13:19:08.680Z,30.45
2016-10-17T13:20:22.354Z,30.53
2016-10-17T13:21:36.019Z,30.51
2016-10-17T13:22:49.712Z,30.69
2016-10-17T13:24:03.564Z,30.6
2016-10-17T13:25:17.228Z,30.76
2016-10-17T13:26:30.896Z,30.8
2016-10-17T13:27:44.518Z,30.82
2016-10-17T13:28:57.621Z,30.83
2016-10-17T13:30:11.224Z,30.98
2016-10-17T13:31:24.372Z,31.21
2016-10-17T13:32:37.495Z,31.29
2016-10-17T13:33:51.182Z,31.32
2016-10-17T13:35:04.279Z,31.5
2016-10-17T13:36:17.948Z,31.56
2016-10-17T13:37:31.582Z,31.81
2016-10-17T13:38:44.644Z,32.01
2016-10-17T13:39:58.303Z,32.13
2016-10-17T13:41:11.963Z,32.26
2016-10-17T13:42:25.626Z,32.33
2016-10-17T13:43:39.271Z,32.63
2016-10-17T13:44:52.913Z,32.69
2016-10-17T13:46:05.959Z,32.93
2016-10-17T13:47:18.667Z,33.29
2016-10-17T13:48:32.353Z,33.87
2016-10-17T13:49:46.051Z,34.06
2016-10-17T13:50:59.118Z,34.24
2016-10-17T13:52:12.759Z,33.95
2016-10-17T13:53:25.863Z,34.13
2016-10-17T13:54:39.556Z,34.3
2016-10-17T13:55:52.656Z,34.73
2016-10-17T13:57:05.757Z,35.1
2016-10-17T13:58:19.384Z,35.21
2016-10-17T13:59:32.441Z,35.38
2016-10-17T14:00:46.087Z,35.85
2016-10-17T14:01:59.822Z,35.96
2016-10-17T14:03:12.392Z,36.15
2016-10-17T14:04:26.050Z,36.16
2016-10-17T14:05:39.820Z,36.15
2016-10-17T14:06:52.890Z,36.13
2016-10-17T14:08:06.149Z,36.43
2016-10-17T14:09:18.734Z,36.76
2016-10-17T14:10:32.280Z,36.95
2016-10-17T14:11:45.512Z,37.15
2016-10-17T14:12:58.565Z,37.06
2016-10-17T14:14:12.216Z,36.99
2016-10-17T14:15:25.993Z,36.81
2016-10-17T14:16:39.326Z,36.91
2016-10-17T14:17:52.997Z,37.56
2016-10-17T14:19:06.597Z,37.72
2016-10-17T14:20:20.338Z,37.55
2016-10-17T14:21:34.040Z,37.2
2016-10-17T14:22:47.750Z,37.67
2016-10-17T14:24:01.417Z,37.43
2016-10-17T14:25:15.023Z,37.4
2016-10-17T14:26:28.200Z,37.36
2016-10-17T14:27:41.967Z,36.95
2016-10-17T14:28:55.662Z,36.85
2016-10-17T14:30:08.846Z,36.88
2016-10-17T14:31:21.441Z,36.94
2016-10-17T14:32:35.055Z,36.64
2016-10-17T14:33:48.191Z,37.06
2016-10-17T14:35:01.767Z,37.32
2016-10-17T14:36:15.501Z,37.22
2016-10-17T14:37:28.568Z,37.06
2016-10-17T14:38:41.849Z,37.36
2016-10-17T14:39:55.491Z,37.5
2016-10-17T14:41:08.626Z,37.72
2016-10-17T14:42:22.286Z,38.03
2016-10-17T14:43:34.370Z,37.78
2016-10-17T14:44:48.043Z,37.56
2016-10-17T14:46:01.184Z,37.63
2016-10-17T14:47:14.327Z,37.94
2016-10-17T14:48:28.071Z,37.56
2016-10-17T14:49:40.656Z,37.74
2016-10-17T14:50:54.352Z,38.06
2016-10-17T14:52:08.055Z,37.79
2016-10-17T14:53:21.235Z,37.93
2016-10-17T14:54:33.761Z,38.32
2016-10-17T14:55:47.436Z,38.84
2016-10-17T14:57:01.092Z,39.04
2016-10-17T14:58:14.760Z,39.3
2016-10-17T14:59:28.351Z,39.94
2016-10-17T15:00:41.932Z,40.31
2016-10-17T15:01:55.580Z,40.51
2016-10-17T15:03:08.671Z,39.86
2016-10-17T15:04:21.772Z,39.35
2016-10-17T15:05:34.817Z,39.32
2016-10-17T15:06:48.636Z,38.95
2016-10-17T15:08:01.779Z,38.83
2016-10-17T15:09:14.855Z,38.78
2016-10-17T15:10:27.986Z,39.11
2016-10-17T15:11:41.662Z,39.22
2016-10-17T15:12:55.273Z,38.69
2016-10-17T15:14:08.428Z,38.9
2016-10-17T15:15:21.764Z,38.83
2016-10-17T15:16:35.414Z,39.09
2016-10-17T15:17:49.040Z,38.84
2016-10-17T15:19:01.629Z,38.91
2016-10-17T15:20:15.267Z,38.6
2016-10-17T15:21:28.807Z,39.17
2016-10-17T15:22:42.474Z,39.55
2016-10-17T15:23:55.608Z,39.66
2016-10-17T15:25:09.235Z,39.43
2016-10-17T15:26:22.034Z,39.67
2016-10-17T15:27:34.651Z,40.19
2016-10-17T15:28:47.760Z,39.79
2016-10-17T15:30:00.858Z,40.16
2016-10-17T15:31:14.449Z,40.98
2016-10-17T15:32:28.187Z,41.13
2016-10-17T15:33:41.990Z,41.13
2016-10-17T15:34:55.639Z,40.27
2016-10-17T15:36:08.779Z,40.61
2016-10-17T15:37:42.442Z,40.32
2016-10-17T15:38:56.263Z,40.2
2016-10-17T15:40:09.796Z,39.92
2016-10-17T15:41:23.400Z,40.27
2016-10-17T15:42:36.492Z,40.77
2016-10-17T15:43:49.557Z,41.55
2016-10-17T15:45:02.783Z,41.63
2016-10-17T15:46:16.426Z,41.32
2016-10-17T15:47:29.737Z,41.13
2016-10-17T15:48:43.387Z,41.66
2016-10-17T15:49:57.036Z,42.12
2016-10-17T15:51:10.732Z,41.64
2016-10-17T15:52:24.394Z,41.13